Back to Top

Language: 

My Weather Underground Personal Weather Station Historical Data with Graphs...

Delerius Weather Station Historical Data
Daily Summary for January 6, 2017 Units:  Both    English   Metric
« Previous Day
Next Day »
Daily Weekly Monthly Yearly Custom
  High: Low: Average:
Temperature: 44.3 °F /  6.8 °C 34.0 °F /  1.1 °C 39.9 °F /  4.4 °C
Dew Point: 43.5 °F /  6.4 °C 29.1 °F /  -1.6 °C 36.6 °F /  2.6 °C
Humidity: 97 % 80 % 88 %
Wind Speed: 12.0 mph /  19.3 km/h - 4.4 mph /  7.1 km/h
Wind Gust: 15.0 mph /  24.1 km/h - -
Wind:- - SSW
Pressure: 30.56 in /  1034.8 hPa 30.38 in /  1028.7 hPa -
Precipitation: 0.03 in /  0.76 mm    
Historical Graphs
 
 
Tabular Data for January 6, 2017
Time Temperature Dew Point Pressure Wind Wind Speed Wind Gust Humidity Rainfall Rate (Hourly) solar Conditions
00:00 34.0 °F /  1.1 °C 30.8 °F /  -0.7 °C 30.56 in /  1034.8 hPa South 1.0 mph /  1.6 km/h 8.0 mph /  12.9 km/h 88 % 0.00 in /  0 mm 0 W/m2
00:05 34.1 °F /  1.2 °C 30.6 °F /  -0.8 °C 30.56 in /  1034.8 hPa South 1.0 mph /  1.6 km/h 8.0 mph /  12.9 km/h 87 % 0.00 in /  0 mm 0 W/m2
00:15 34.3 °F /  1.3 °C 30.5 °F /  -0.8 °C 30.56 in /  1034.8 hPa South 2.0 mph /  3.2 km/h 4.0 mph /  6.4 km/h 86 % 0.00 in /  0 mm 0 W/m2
00:20 34.4 °F /  1.3 °C 30.4 °F /  -0.9 °C 30.56 in /  1034.8 hPa SSW 3.0 mph /  4.8 km/h 5.0 mph /  8 km/h 85 % 0.00 in /  0 mm 0 W/m2
00:25 34.5 °F /  1.4 °C 30.2 °F /  -1 °C 30.56 in /  1034.8 hPa SSW 3.0 mph /  4.8 km/h 5.0 mph /  8 km/h 84 % 0.00 in /  0 mm 0 W/m2
00:30 34.6 °F /  1.4 °C 30.0 °F /  -1.1 °C 30.55 in /  1034.4 hPa SSW 3.0 mph /  4.8 km/h 3.0 mph /  4.8 km/h 83 % 0.00 in /  0 mm 0 W/m2
00:35 34.7 °F /  1.5 °C 30.1 °F /  -1.1 °C 30.55 in /  1034.4 hPa SSW 3.0 mph /  4.8 km/h 7.0 mph /  11.3 km/h 83 % 0.00 in /  0 mm 0 W/m2
00:40 34.8 °F /  1.6 °C 30.2 °F /  -1 °C 30.55 in /  1034.4 hPa SW 4.0 mph /  6.4 km/h 4.0 mph /  6.4 km/h 83 % 0.00 in /  0 mm 0 W/m2
00:50 34.7 °F /  1.5 °C 29.8 °F /  -1.2 °C 30.55 in /  1034.4 hPa SSW 3.0 mph /  4.8 km/h 3.0 mph /  4.8 km/h 82 % 0.00 in /  0 mm 0 W/m2
00:55 34.7 °F /  1.5 °C 29.8 °F /  -1.2 °C 30.55 in /  1034.4 hPa SSW 3.0 mph /  4.8 km/h 3.0 mph /  4.8 km/h 82 % 0.00 in /  0 mm 0 W/m2
01:00 34.7 °F /  1.5 °C 29.8 °F /  -1.2 °C 30.55 in /  1034.4 hPa SSW 3.0 mph /  4.8 km/h 6.0 mph /  9.7 km/h 82 % 0.00 in /  0 mm 0 W/m2
01:05 34.7 °F /  1.5 °C 29.8 °F /  -1.2 °C 30.55 in /  1034.4 hPa SW 5.0 mph /  8 km/h 8.0 mph /  12.9 km/h 82 % 0.00 in /  0 mm 0 W/m2
01:10 34.9 °F /  1.6 °C 30.0 °F /  -1.1 °C 30.55 in /  1034.4 hPa SW 6.0 mph /  9.7 km/h 6.0 mph /  9.7 km/h 82 % 0.00 in /  0 mm 0 W/m2
01:15 35.0 °F /  1.7 °C 29.8 °F /  -1.2 °C 30.55 in /  1034.4 hPa SSW 6.0 mph /  9.7 km/h 8.0 mph /  12.9 km/h 81 % 0.00 in /  0 mm 0 W/m2
01:20 35.0 °F /  1.7 °C 29.8 °F /  -1.2 °C 30.55 in /  1034.4 hPa South 5.0 mph /  8 km/h 8.0 mph /  12.9 km/h 81 % 0.00 in /  0 mm 0 W/m2
01:30 35.0 °F /  1.7 °C 29.8 °F /  -1.2 °C 30.55 in /  1034.4 hPa SSW 4.0 mph /  6.4 km/h 8.0 mph /  12.9 km/h 81 % 0.00 in /  0 mm 0 W/m2
01:35 34.9 °F /  1.6 °C 29.7 °F /  -1.3 °C 30.55 in /  1034.4 hPa SW 3.0 mph /  4.8 km/h 8.0 mph /  12.9 km/h 81 % 0.00 in /  0 mm 0 W/m2
01:40 34.7 °F /  1.5 °C 29.5 °F /  -1.4 °C 30.54 in /  1034.1 hPa SW 3.0 mph /  4.8 km/h 3.0 mph /  4.8 km/h 81 % 0.00 in /  0 mm 0 W/m2
01:45 34.6 °F /  1.4 °C 29.4 °F /  -1.4 °C 30.54 in /  1034.1 hPa SW 3.0 mph /  4.8 km/h 5.0 mph /  8 km/h 81 % 0.00 in /  0 mm 0 W/m2
01:50 34.7 °F /  1.5 °C 29.5 °F /  -1.4 °C 30.54 in /  1034.1 hPa SW 5.0 mph /  8 km/h 8.0 mph /  12.9 km/h 81 % 0.00 in /  0 mm 0 W/m2
01:55 34.7 °F /  1.5 °C 29.5 °F /  -1.4 °C 30.54 in /  1034.1 hPa SW 5.0 mph /  8 km/h 8.0 mph /  12.9 km/h 81 % 0.00 in /  0 mm 0 W/m2
02:00 34.7 °F /  1.5 °C 29.5 °F /  -1.4 °C 30.54 in /  1034.1 hPa South 4.0 mph /  6.4 km/h 8.0 mph /  12.9 km/h 81 % 0.00 in /  0 mm 0 W/m2
02:10 34.7 °F /  1.5 °C 29.5 °F /  -1.4 °C 30.54 in /  1034.1 hPa South 4.0 mph /  6.4 km/h 8.0 mph /  12.9 km/h 81 % 0.00 in /  0 mm 0 W/m2
02:15 34.6 °F /  1.4 °C 29.1 °F /  -1.6 °C 30.54 in /  1034.1 hPa SSW 3.0 mph /  4.8 km/h 8.0 mph /  12.9 km/h 80 % 0.00 in /  0 mm 0 W/m2
02:20 34.7 °F /  1.5 °C 29.5 °F /  -1.4 °C 30.54 in /  1034.1 hPa SW 3.0 mph /  4.8 km/h 3.0 mph /  4.8 km/h 81 % 0.00 in /  0 mm 0 W/m2
02:25 34.7 °F /  1.5 °C 29.2 °F /  -1.6 °C 30.53 in /  1033.7 hPa SW 4.0 mph /  6.4 km/h 4.0 mph /  6.4 km/h 80 % 0.00 in /  0 mm 0 W/m2
02:30 34.7 °F /  1.5 °C 29.2 °F /  -1.6 °C 30.53 in /  1033.7 hPa SW 4.0 mph /  6.4 km/h 8.0 mph /  12.9 km/h 80 % 0.00 in /  0 mm 0 W/m2
02:35 34.7 °F /  1.5 °C 29.2 °F /  -1.6 °C 30.53 in /  1033.7 hPa SSW 4.0 mph /  6.4 km/h 8.0 mph /  12.9 km/h 80 % 0.00 in /  0 mm 0 W/m2
02:45 34.8 °F /  1.6 °C 29.6 °F /  -1.3 °C 30.53 in /  1033.7 hPa SSW 4.0 mph /  6.4 km/h 5.0 mph /  8 km/h 81 % 0.00 in /  0 mm 0 W/m2
02:50 34.8 °F /  1.6 °C 29.6 °F /  -1.3 °C 30.53 in /  1033.7 hPa SSW 5.0 mph /  8 km/h 8.0 mph /  12.9 km/h 81 % 0.00 in /  0 mm 0 W/m2
02:55 34.8 °F /  1.6 °C 29.6 °F /  -1.3 °C 30.53 in /  1033.7 hPa SSW 5.0 mph /  8 km/h 8.0 mph /  12.9 km/h 81 % 0.00 in /  0 mm 0 W/m2
03:00 34.7 °F /  1.5 °C 29.5 °F /  -1.4 °C 30.53 in /  1033.7 hPa SW 5.0 mph /  8 km/h 8.0 mph /  12.9 km/h 81 % 0.00 in /  0 mm 0 W/m2
03:05 34.8 °F /  1.6 °C 29.6 °F /  -1.3 °C 30.53 in /  1033.7 hPa SSW 6.0 mph /  9.7 km/h 8.0 mph /  12.9 km/h 81 % 0.00 in /  0 mm 0 W/m2
03:10 34.8 °F /  1.6 °C 29.6 °F /  -1.3 °C 30.53 in /  1033.7 hPa South 5.0 mph /  8 km/h 5.0 mph /  8 km/h 81 % 0.00 in /  0 mm 0 W/m2
03:20 34.9 °F /  1.6 °C 30.0 °F /  -1.1 °C 30.53 in /  1033.7 hPa SSW 4.0 mph /  6.4 km/h 8.0 mph /  12.9 km/h 82 % 0.00 in /  0 mm 0 W/m2
03:25 35.0 °F /  1.7 °C 30.1 °F /  -1.1 °C 30.53 in /  1033.7 hPa WSW 3.0 mph /  4.8 km/h 8.0 mph /  12.9 km/h 82 % 0.00 in /  0 mm 0 W/m2
03:30 35.1 °F /  1.7 °C 30.2 °F /  -1 °C 30.53 in /  1033.7 hPa SW 4.0 mph /  6.4 km/h 4.0 mph /  6.4 km/h 82 % 0.00 in /  0 mm 0 W/m2
03:35 35.2 °F /  1.8 °C 30.3 °F /  -0.9 °C 30.53 in /  1033.7 hPa SSW 5.0 mph /  8 km/h 5.0 mph /  8 km/h 82 % 0.00 in /  0 mm 0 W/m2
03:40 35.4 °F /  1.9 °C 30.5 °F /  -0.8 °C 30.53 in /  1033.7 hPa SSW 5.0 mph /  8 km/h 5.0 mph /  8 km/h 82 % 0.00 in /  0 mm 0 W/m2
03:45 35.4 °F /  1.9 °C 30.5 °F /  -0.8 °C 30.53 in /  1033.7 hPa SW 5.0 mph /  8 km/h 8.0 mph /  12.9 km/h 82 % 0.00 in /  0 mm 0 W/m2
03:55 35.6 °F /  2 °C 30.6 °F /  -0.8 °C 30.52 in /  1033.4 hPa SW 5.0 mph /  8 km/h 6.0 mph /  9.7 km/h 82 % 0.00 in /  0 mm 0 W/m2
04:00 35.8 °F /  2.1 °C 30.8 °F /  -0.7 °C 30.52 in /  1033.4 hPa SW 6.0 mph /  9.7 km/h 8.0 mph /  12.9 km/h 82 % 0.00 in /  0 mm 0 W/m2
04:05 36.0 °F /  2.2 °C 31.0 °F /  -0.6 °C 30.52 in /  1033.4 hPa SSW 7.0 mph /  11.3 km/h 8.0 mph /  12.9 km/h 82 % 0.00 in /  0 mm 0 W/m2
04:10 36.1 °F /  2.3 °C 31.1 °F /  -0.5 °C 30.52 in /  1033.4 hPa SW 6.0 mph /  9.7 km/h 10.0 mph /  16.1 km/h 82 % 0.00 in /  0 mm 0 W/m2
04:15 36.3 °F /  2.4 °C 31.0 °F /  -0.6 °C 30.52 in /  1033.4 hPa SW 6.0 mph /  9.7 km/h 10.0 mph /  16.1 km/h 81 % 0.00 in /  0 mm 0 W/m2
04:20 36.4 °F /  2.4 °C 31.1 °F /  -0.5 °C 30.52 in /  1033.4 hPa SW 4.0 mph /  6.4 km/h 4.0 mph /  6.4 km/h 81 % 0.00 in /  0 mm 0 W/m2
04:30 36.3 °F /  2.4 °C 31.3 °F /  -0.4 °C 30.51 in /  1033.1 hPa West 2.0 mph /  3.2 km/h 8.0 mph /  12.9 km/h 82 % 0.00 in /  0 mm 0 W/m2
04:35 36.3 °F /  2.4 °C 31.3 °F /  -0.4 °C 30.51 in /  1033.1 hPa WSW 4.0 mph /  6.4 km/h 8.0 mph /  12.9 km/h 82 % 0.00 in /  0 mm 0 W/m2
04:40 36.4 °F /  2.4 °C 31.4 °F /  -0.3 °C 30.51 in /  1033.1 hPa SW 4.0 mph /  6.4 km/h 8.0 mph /  12.9 km/h 82 % 0.00 in /  0 mm 0 W/m2
04:50 36.7 °F /  2.6 °C 31.7 °F /  -0.2 °C 30.51 in /  1033.1 hPa SW 6.0 mph /  9.7 km/h 8.0 mph /  12.9 km/h 82 % 0.00 in /  0 mm 0 W/m2
04:55 36.9 °F /  2.7 °C 31.9 °F /  -0.1 °C 30.50 in /  1032.7 hPa SSW 7.0 mph /  11.3 km/h 8.0 mph /  12.9 km/h 82 % 0.00 in /  0 mm 0 W/m2
05:00 37.0 °F /  2.8 °C 32.0 °F /  0 °C 30.50 in /  1032.7 hPa SW 6.0 mph /  9.7 km/h 8.0 mph /  12.9 km/h 82 % 0.00 in /  0 mm 0 W/m2
05:10 37.5 °F /  3.1 °C 32.5 °F /  0.3 °C 30.50 in /  1032.7 hPa SW 8.0 mph /  12.9 km/h 8.0 mph /  12.9 km/h 82 % 0.00 in /  0 mm 0 W/m2
05:15 37.6 °F /  3.1 °C 32.6 °F /  0.3 °C 30.50 in /  1032.7 hPa SW 8.0 mph /  12.9 km/h 8.0 mph /  12.9 km/h 82 % 0.00 in /  0 mm 0 W/m2
05:20 37.7 °F /  3.2 °C 32.7 °F /  0.4 °C 30.50 in /  1032.7 hPa SSW 7.0 mph /  11.3 km/h 11.0 mph /  17.7 km/h 82 % 0.00 in /  0 mm 0 W/m2
05:25 37.9 °F /  3.3 °C 32.9 °F /  0.5 °C 30.50 in /  1032.7 hPa SSW 7.0 mph /  11.3 km/h 13.0 mph /  20.9 km/h 82 % 0.00 in /  0 mm 0 W/m2
05:30 38.1 °F /  3.4 °C 33.1 °F /  0.6 °C 30.50 in /  1032.7 hPa SSW 8.0 mph /  12.9 km/h 10.0 mph /  16.1 km/h 82 % 0.00 in /  0 mm 0 W/m2
05:35 38.4 °F /  3.6 °C 33.4 °F /  0.8 °C 30.50 in /  1032.7 hPa SW 7.0 mph /  11.3 km/h 10.0 mph /  16.1 km/h 82 % 0.00 in /  0 mm 0 W/m2
05:45 38.4 °F /  3.6 °C 33.4 °F /  0.8 °C 30.50 in /  1032.7 hPa WSW 3.0 mph /  4.8 km/h 8.0 mph /  12.9 km/h 82 % 0.00 in /  0 mm 0 W/m2
05:50 38.5 °F /  3.6 °C 33.5 °F /  0.8 °C 30.49 in /  1032.4 hPa WSW 3.0 mph /  4.8 km/h 8.0 mph /  12.9 km/h 82 % 0.00 in /  0 mm 0 W/m2
05:55 38.6 °F /  3.7 °C 33.6 °F /  0.9 °C 30.49 in /  1032.4 hPa SW 4.0 mph /  6.4 km/h 8.0 mph /  12.9 km/h 82 % 0.00 in /  0 mm 0 W/m2
06:00 38.7 °F /  3.7 °C 33.7 °F /  0.9 °C 30.49 in /  1032.4 hPa SW 6.0 mph /  9.7 km/h 6.0 mph /  9.7 km/h 82 % 0.00 in /  0 mm 0 W/m2
06:05 38.8 °F /  3.8 °C 33.8 °F /  1 °C 30.50 in /  1032.7 hPa WSW 7.0 mph /  11.3 km/h 7.0 mph /  11.3 km/h 82 % 0.00 in /  0 mm 0 W/m2
06:10 38.9 °F /  3.8 °C 33.9 °F /  1.1 °C 30.50 in /  1032.7 hPa SW 6.0 mph /  9.7 km/h 6.0 mph /  9.7 km/h 82 % 0.00 in /  0 mm 0 W/m2
06:15 39.0 °F /  3.9 °C 34.0 °F /  1.1 °C 30.50 in /  1032.7 hPa WSW 5.0 mph /  8 km/h 8.0 mph /  12.9 km/h 82 % 0.00 in /  0 mm 0 W/m2
06:20 39.0 °F /  3.9 °C 34.0 °F /  1.1 °C 30.50 in /  1032.7 hPa WSW 4.0 mph /  6.4 km/h 8.0 mph /  12.9 km/h 82 % 0.00 in /  0 mm 0 W/m2
06:30 39.1 °F /  3.9 °C 34.1 °F /  1.2 °C 30.50 in /  1032.7 hPa SSW 5.0 mph /  8 km/h 8.0 mph /  12.9 km/h 82 % 0.00 in /  0 mm 0 W/m2
06:35 39.0 °F /  3.9 °C 34.0 °F /  1.1 °C 30.50 in /  1032.7 hPa WSW 5.0 mph /  8 km/h 8.0 mph /  12.9 km/h 82 % 0.00 in /  0 mm 0 W/m2
06:40 39.0 °F /  3.9 °C 34.3 °F /  1.3 °C 30.50 in /  1032.7 hPa SSW 5.0 mph /  8 km/h 5.0 mph /  8 km/h 83 % 0.00 in /  0 mm 0 W/m2
06:45 39.0 °F /  3.9 °C 34.3 °F /  1.3 °C 30.50 in /  1032.7 hPa SW 5.0 mph /  8 km/h 6.0 mph /  9.7 km/h 83 % 0.00 in /  0 mm 0 W/m2
06:50 39.1 °F /  3.9 °C 34.4 °F /  1.3 °C 30.51 in /  1033.1 hPa SSW 5.0 mph /  8 km/h 8.0 mph /  12.9 km/h 83 % 0.00 in /  0 mm 0 W/m2
06:55 39.2 °F /  4 °C 34.5 °F /  1.4 °C 30.50 in /  1032.7 hPa SW 6.0 mph /  9.7 km/h 8.0 mph /  12.9 km/h 83 % 0.00 in /  0 mm 0 W/m2
07:05 39.4 °F /  4.1 °C 34.7 °F /  1.5 °C 30.50 in /  1032.7 hPa SW 6.0 mph /  9.7 km/h 8.0 mph /  12.9 km/h 83 % 0.00 in /  0 mm 0 W/m2
07:15 39.5 °F /  4.2 °C 34.8 °F /  1.6 °C 30.50 in /  1032.7 hPa SW 5.0 mph /  8 km/h 8.0 mph /  12.9 km/h 83 % 0.00 in /  0 mm 0 W/m2
07:20 39.6 °F /  4.2 °C 34.9 °F /  1.6 °C 30.50 in /  1032.7 hPa SW 5.0 mph /  8 km/h 10.0 mph /  16.1 km/h 83 % 0.00 in /  0 mm 0 W/m2
07:25 39.8 °F /  4.3 °C 35.1 °F /  1.7 °C 30.50 in /  1032.7 hPa SSW 6.0 mph /  9.7 km/h 10.0 mph /  16.1 km/h 83 % 0.00 in /  0 mm 0 W/m2
07:30 39.9 °F /  4.4 °C 34.9 °F /  1.6 °C 30.50 in /  1032.7 hPa SSW 8.0 mph /  12.9 km/h 10.0 mph /  16.1 km/h 82 % 0.00 in /  0 mm 0 W/m2
07:35 39.9 °F /  4.4 °C 34.9 °F /  1.6 °C 30.50 in /  1032.7 hPa SW 8.0 mph /  12.9 km/h 10.0 mph /  16.1 km/h 82 % 0.00 in /  0 mm 0 W/m2
07:40 39.9 °F /  4.4 °C 34.9 °F /  1.6 °C 30.50 in /  1032.7 hPa South 8.0 mph /  12.9 km/h 14.0 mph /  22.5 km/h 82 % 0.00 in /  0 mm 0 W/m2
07:50 40.0 °F /  4.4 °C 34.6 °F /  1.4 °C 30.50 in /  1032.7 hPa SW 11.0 mph /  17.7 km/h 12.0 mph /  19.3 km/h 81 % 0.00 in /  0 mm 0 W/m2
07:55 40.1 °F /  4.5 °C 34.7 °F /  1.5 °C 30.49 in /  1032.4 hPa SSE 10.0 mph /  16.1 km/h 12.0 mph /  19.3 km/h 81 % 0.00 in /  0 mm 0 W/m2
08:00 40.0 °F /  4.4 °C 34.6 °F /  1.4 °C 30.49 in /  1032.4 hPa SSW 10.0 mph /  16.1 km/h 14.0 mph /  22.5 km/h 81 % 0.00 in /  0 mm 0 W/m2
08:05 40.0 °F /  4.4 °C 34.6 °F /  1.4 °C 30.49 in /  1032.4 hPa SSW 9.0 mph /  14.5 km/h 14.0 mph /  22.5 km/h 81 % 0.00 in /  0 mm 0 W/m2
08:10 40.0 °F /  4.4 °C 34.6 °F /  1.4 °C 30.49 in /  1032.4 hPa SSW 7.0 mph /  11.3 km/h 9.0 mph /  14.5 km/h 81 % 0.00 in /  0 mm 0 W/m2
08:15 40.1 °F /  4.5 °C 34.7 °F /  1.5 °C 30.49 in /  1032.4 hPa SSW 6.0 mph /  9.7 km/h 9.0 mph /  14.5 km/h 81 % 0.00 in /  0 mm 0 W/m2
08:25 40.2 °F /  4.6 °C 34.8 °F /  1.6 °C 30.49 in /  1032.4 hPa South 4.0 mph /  6.4 km/h 8.0 mph /  12.9 km/h 81 % 0.00 in /  0 mm 0 W/m2
08:35 40.3 °F /  4.6 °C 34.6 °F /  1.4 °C 30.50 in /  1032.7 hPa SSW 6.0 mph /  9.7 km/h 8.0 mph /  12.9 km/h 80 % 0.00 in /  0 mm 5 W/m2
08:40 40.4 °F /  4.7 °C 35.0 °F /  1.7 °C 30.49 in /  1032.4 hPa South 6.0 mph /  9.7 km/h 6.0 mph /  9.7 km/h 81 % 0.00 in /  0 mm 5 W/m2
08:45 40.3 °F /  4.6 °C 34.9 °F /  1.6 °C 30.49 in /  1032.4 hPa South 5.0 mph /  8 km/h 7.0 mph /  11.3 km/h 81 % 0.00 in /  0 mm 7 W/m2
08:50 40.2 °F /  4.6 °C 35.1 °F /  1.7 °C 30.49 in /  1032.4 hPa SSW 5.0 mph /  8 km/h 12.0 mph /  19.3 km/h 82 % 0.00 in /  0 mm 9 W/m2
09:00 40.1 °F /  4.5 °C 35.4 °F /  1.9 °C 30.49 in /  1032.4 hPa SSE 7.0 mph /  11.3 km/h 8.0 mph /  12.9 km/h 83 % 0.00 in /  0 mm 12 W/m2
09:05 40.0 °F /  4.4 °C 35.3 °F /  1.8 °C 30.49 in /  1032.4 hPa SSW 7.0 mph /  11.3 km/h 8.0 mph /  12.9 km/h 83 % 0.00 in /  0 mm 11 W/m2
09:10 40.0 °F /  4.4 °C 35.6 °F /  2 °C 30.49 in /  1032.4 hPa South 6.0 mph /  9.7 km/h 6.0 mph /  9.7 km/h 84 % 0.00 in /  0 mm 12 W/m2
09:15 40.0 °F /  4.4 °C 35.6 °F /  2 °C 30.49 in /  1032.4 hPa SSW 5.0 mph /  8 km/h 8.0 mph /  12.9 km/h 84 % 0.00 in /  0 mm 12 W/m2
09:20 40.0 °F /  4.4 °C 35.6 °F /  2 °C 30.49 in /  1032.4 hPa SSW 4.0 mph /  6.4 km/h 8.0 mph /  12.9 km/h 84 % 0.00 in /  0 mm 12 W/m2
09:25 40.0 °F /  4.4 °C 35.6 °F /  2 °C 30.49 in /  1032.4 hPa SSW 5.0 mph /  8 km/h 8.0 mph /  12.9 km/h 84 % 0.00 in /  0 mm 14 W/m2
09:35 40.0 °F /  4.4 °C 35.6 °F /  2 °C 30.49 in /  1032.4 hPa South 6.0 mph /  9.7 km/h 10.0 mph /  16.1 km/h 84 % 0.00 in /  0 mm 14 W/m2
09:40 40.1 °F /  4.5 °C 35.7 °F /  2.1 °C 30.49 in /  1032.4 hPa SSW 5.0 mph /  8 km/h 8.0 mph /  12.9 km/h 84 % 0.00 in /  0 mm 16 W/m2
09:45 40.2 °F /  4.6 °C 35.8 °F /  2.1 °C 30.49 in /  1032.4 hPa SSW 6.0 mph /  9.7 km/h 8.0 mph /  12.9 km/h 84 % 0.00 in /  0 mm 18 W/m2
09:50 40.2 °F /  4.6 °C 35.8 °F /  2.1 °C 30.49 in /  1032.4 hPa SSW 7.0 mph /  11.3 km/h 7.0 mph /  11.3 km/h 84 % 0.00 in /  0 mm 18 W/m2
09:55 40.4 °F /  4.7 °C 35.9 °F /  2.2 °C 30.49 in /  1032.4 hPa SW 7.0 mph /  11.3 km/h 8.0 mph /  12.9 km/h 84 % 0.00 in /  0 mm 21 W/m2
10:00 40.6 °F /  4.8 °C 35.8 °F /  2.1 °C 30.49 in /  1032.4 hPa SSW 8.0 mph /  12.9 km/h 8.0 mph /  12.9 km/h 83 % 0.00 in /  0 mm 19 W/m2
10:05 40.6 °F /  4.8 °C 35.8 °F /  2.1 °C 30.49 in /  1032.4 hPa SSW 8.0 mph /  12.9 km/h 8.0 mph /  12.9 km/h 83 % 0.00 in /  0 mm 21 W/m2
10:10 40.6 °F /  4.8 °C 35.8 °F /  2.1 °C 30.49 in /  1032.4 hPa SW 8.0 mph /  12.9 km/h 9.0 mph /  14.5 km/h 83 % 0.00 in /  0 mm 19 W/m2
10:15 40.6 °F /  4.8 °C 35.8 °F /  2.1 °C 30.49 in /  1032.4 hPa SSW 8.0 mph /  12.9 km/h 9.0 mph /  14.5 km/h 83 % 0.00 in /  0 mm 18 W/m2
10:25 40.7 °F /  4.8 °C 35.6 °F /  2 °C 30.49 in /  1032.4 hPa SSW 12.0 mph /  19.3 km/h 13.0 mph /  20.9 km/h 82 % 0.00 in /  0 mm 19 W/m2
10:30 40.5 °F /  4.7 °C 35.7 °F /  2.1 °C 30.49 in /  1032.4 hPa SSW 12.0 mph /  19.3 km/h 13.0 mph /  20.9 km/h 83 % 0.00 in /  0 mm 21 W/m2
10:35 40.3 °F /  4.6 °C 35.5 °F /  1.9 °C 30.48 in /  1032.1 hPa SW 12.0 mph /  19.3 km/h 13.0 mph /  20.9 km/h 83 % 0.00 in /  0 mm 25 W/m2
10:40 40.4 °F /  4.7 °C 35.6 °F /  2 °C 30.48 in /  1032.1 hPa SSW 12.0 mph /  19.3 km/h 12.0 mph /  19.3 km/h 83 % 0.00 in /  0 mm 28 W/m2
10:45 40.4 °F /  4.7 °C 35.6 °F /  2 °C 30.48 in /  1032.1 hPa SW 11.0 mph /  17.7 km/h 13.0 mph /  20.9 km/h 83 % 0.00 in /  0 mm 33 W/m2
10:50 40.4 °F /  4.7 °C 35.6 °F /  2 °C 30.48 in /  1032.1 hPa SW 10.0 mph /  16.1 km/h 10.0 mph /  16.1 km/h 83 % 0.00 in /  0 mm 32 W/m2
11:00 40.3 °F /  4.6 °C 35.8 °F /  2.1 °C 30.48 in /  1032.1 hPa SSW 8.0 mph /  12.9 km/h 8.0 mph /  12.9 km/h 84 % 0.00 in /  0 mm 23 W/m2
11:05 40.3 °F /  4.6 °C 35.8 °F /  2.1 °C 30.47 in /  1031.7 hPa SW 8.0 mph /  12.9 km/h 8.0 mph /  12.9 km/h 84 % 0.00 in /  0 mm 21 W/m2
11:10 40.3 °F /  4.6 °C 36.1 °F /  2.3 °C 30.47 in /  1031.7 hPa SSE 9.0 mph /  14.5 km/h 9.0 mph /  14.5 km/h 85 % 0.00 in /  0 mm 21 W/m2
11:15 40.3 °F /  4.6 °C 36.1 °F /  2.3 °C 30.47 in /  1031.7 hPa SSW 9.0 mph /  14.5 km/h 9.0 mph /  14.5 km/h 85 % 0.00 in /  0 mm 19 W/m2
11:20 40.2 °F /  4.6 °C 36.1 °F /  2.3 °C 30.47 in /  1031.7 hPa SSW 8.0 mph /  12.9 km/h 9.0 mph /  14.5 km/h 85 % 0.00 in /  0 mm 21 W/m2
11:25 40.3 °F /  4.6 °C 36.4 °F /  2.4 °C 30.47 in /  1031.7 hPa South 8.0 mph /  12.9 km/h 9.0 mph /  14.5 km/h 86 % 0.00 in /  0 mm 25 W/m2
11:35 40.6 °F /  4.8 °C 37.0 °F /  2.8 °C 30.46 in /  1031.4 hPa SSW 8.0 mph /  12.9 km/h 10.0 mph /  16.1 km/h 87 % 0.00 in /  0 mm 30 W/m2
11:45 40.8 °F /  4.9 °C 37.5 °F /  3.1 °C 30.46 in /  1031.4 hPa SSW 9.0 mph /  14.5 km/h 11.0 mph /  17.7 km/h 88 % 0.00 in /  0 mm 32 W/m2
11:50 40.9 °F /  4.9 °C 37.6 °F /  3.1 °C 30.46 in /  1031.4 hPa SSW 8.0 mph /  12.9 km/h 8.0 mph /  12.9 km/h 88 % 0.00 in /  0 mm 40 W/m2
11:55 41.0 °F /  5 °C 38.0 °F /  3.3 °C 30.46 in /  1031.4 hPa SW 8.0 mph /  12.9 km/h 8.0 mph /  12.9 km/h 89 % 0.00 in /  0 mm 49 W/m2
12:00 41.1 °F /  5.1 °C 38.1 °F /  3.4 °C 30.45 in /  1031 hPa SW 8.0 mph /  12.9 km/h 8.0 mph /  12.9 km/h 89 % 0.00 in /  0 mm 49 W/m2
12:05 41.2 °F /  5.1 °C 38.2 °F /  3.4 °C 30.45 in /  1031 hPa South 7.0 mph /  11.3 km/h 10.0 mph /  16.1 km/h 89 % 0.00 in /  0 mm 47 W/m2
12:10 41.2 °F /  5.1 °C 38.2 °F /  3.4 °C 30.45 in /  1031 hPa SSW 8.0 mph /  12.9 km/h 8.0 mph /  12.9 km/h 89 % 0.00 in /  0 mm 51 W/m2
12:20 40.8 °F /  4.9 °C 37.8 °F /  3.2 °C 30.45 in /  1031 hPa SSW 7.0 mph /  11.3 km/h 9.0 mph /  14.5 km/h 89 % 0.00 in /  0 mm 46 W/m2
12:25 40.6 °F /  4.8 °C 37.6 °F /  3.1 °C 30.45 in /  1031 hPa SSW 6.0 mph /  9.7 km/h 9.0 mph /  14.5 km/h 89 % 0.00 in /  0 mm 47 W/m2
12:30 40.3 °F /  4.6 °C 37.6 °F /  3.1 °C 30.45 in /  1031 hPa South 7.0 mph /  11.3 km/h 7.0 mph /  11.3 km/h 90 % 0.00 in /  0 mm 46 W/m2
12:35 40.2 °F /  4.6 °C 37.8 °F /  3.2 °C 30.45 in /  1031 hPa South 7.0 mph /  11.3 km/h 8.0 mph /  12.9 km/h 91 % 0.00 in /  0 mm 40 W/m2
12:40 40.2 °F /  4.6 °C 37.8 °F /  3.2 °C 30.45 in /  1031 hPa South 6.0 mph /  9.7 km/h 6.0 mph /  9.7 km/h 91 % 0.00 in /  0 mm 35 W/m2
12:45 40.2 °F /  4.6 °C 38.1 °F /  3.4 °C 30.44 in /  1030.7 hPa South 6.0 mph /  9.7 km/h 8.0 mph /  12.9 km/h 92 % 0.00 in /  0 mm 37 W/m2
12:50 40.2 °F /  4.6 °C 38.1 °F /  3.4 °C 30.44 in /  1030.7 hPa North 7.0 mph /  11.3 km/h 8.0 mph /  12.9 km/h 92 % 0.00 in /  0 mm 37 W/m2
13:00 40.3 °F /  4.6 °C 38.2 °F /  3.4 °C 30.43 in /  1030.4 hPa SSW 7.0 mph /  11.3 km/h 13.0 mph /  20.9 km/h 92 % 0.00 in /  0 mm 44 W/m2
13:05 40.3 °F /  4.6 °C 38.4 °F /  3.6 °C 30.43 in /  1030.4 hPa South 7.0 mph /  11.3 km/h 13.0 mph /  20.9 km/h 93 % 0.00 in /  0 mm 42 W/m2
13:10 40.4 °F /  4.7 °C 38.5 °F /  3.6 °C 30.43 in /  1030.4 hPa SSW 5.0 mph /  8 km/h 5.0 mph /  8 km/h 93 % 0.00 in /  0 mm 35 W/m2
13:15 40.5 °F /  4.7 °C 38.6 °F /  3.7 °C 30.43 in /  1030.4 hPa South 5.0 mph /  8 km/h 8.0 mph /  12.9 km/h 93 % 0.00 in /  0 mm 32 W/m2
13:20 40.6 °F /  4.8 °C 38.7 °F /  3.7 °C 30.43 in /  1030.4 hPa SSW 5.0 mph /  8 km/h 8.0 mph /  12.9 km/h 93 % 0.00 in /  0 mm 26 W/m2
13:25 40.7 °F /  4.8 °C 38.8 °F /  3.8 °C 30.42 in /  1030 hPa SSW 6.0 mph /  9.7 km/h 8.0 mph /  12.9 km/h 93 % 0.00 in /  0 mm 30 W/m2
13:35 41.0 °F /  5 °C 39.1 °F /  3.9 °C 30.42 in /  1030 hPa South 8.0 mph /  12.9 km/h 11.0 mph /  17.7 km/h 93 % 0.00 in /  0 mm 30 W/m2
13:40 41.0 °F /  5 °C 38.9 °F /  3.8 °C 30.42 in /  1030 hPa SSW 7.0 mph /  11.3 km/h 12.0 mph /  19.3 km/h 92 % 0.00 in /  0 mm 28 W/m2
13:45 41.1 °F /  5.1 °C 39.2 °F /  4 °C 30.42 in /  1030 hPa SSW 7.0 mph /  11.3 km/h 12.0 mph /  19.3 km/h 93 % 0.00 in /  0 mm 26 W/m2
13:50 41.1 °F /  5.1 °C 39.0 °F /  3.9 °C 30.42 in /  1030 hPa SW 7.0 mph /  11.3 km/h 7.0 mph /  11.3 km/h 92 % 0.00 in /  0 mm 30 W/m2
13:55 41.1 °F /  5.1 °C 39.2 °F /  4 °C 30.42 in /  1030 hPa SSW 7.0 mph /  11.3 km/h 9.0 mph /  14.5 km/h 93 % 0.00 in /  0 mm 28 W/m2
14:00 41.2 °F /  5.1 °C 39.3 °F /  4.1 °C 30.42 in /  1030 hPa SSW 7.0 mph /  11.3 km/h 7.0 mph /  11.3 km/h 93 % 0.04 in /  1.02 mm 28 W/m2
14:10 41.3 °F /  5.2 °C 39.4 °F /  4.1 °C 30.42 in /  1030 hPa South 6.0 mph /  9.7 km/h 6.0 mph /  9.7 km/h 93 % 0.04 in /  1.02 mm 23 W/m2
14:15 41.3 °F /  5.2 °C 39.4 °F /  4.1 °C 30.42 in /  1030 hPa SSW 5.0 mph /  8 km/h 8.0 mph /  12.9 km/h 93 % 0.00 in /  0 mm 21 W/m2
14:20 41.4 °F /  5.2 °C 39.5 °F /  4.2 °C 30.42 in /  1030 hPa SSW 5.0 mph /  8 km/h 8.0 mph /  12.9 km/h 93 % 0.00 in /  0 mm 19 W/m2
14:25 41.5 °F /  5.3 °C 39.6 °F /  4.2 °C 30.42 in /  1030 hPa SSW 8.0 mph /  12.9 km/h 13.0 mph /  20.9 km/h 93 % 0.00 in /  0 mm 18 W/m2
14:30 41.6 °F /  5.3 °C 39.4 °F /  4.1 °C 30.42 in /  1030 hPa SSW 9.0 mph /  14.5 km/h 15.0 mph /  24.1 km/h 92 % 0.00 in /  0 mm 19 W/m2
14:40 41.6 °F /  5.3 °C 39.4 °F /  4.1 °C 30.42 in /  1030 hPa SSW 7.0 mph /  11.3 km/h 8.0 mph /  12.9 km/h 92 % 0.00 in /  0 mm 19 W/m2
14:45 41.5 °F /  5.3 °C 39.3 °F /  4.1 °C 30.42 in /  1030 hPa SSW 5.0 mph /  8 km/h 8.0 mph /  12.9 km/h 92 % 0.00 in /  0 mm 16 W/m2
14:50 41.5 °F /  5.3 °C 39.3 °F /  4.1 °C 30.42 in /  1030 hPa SSW 4.0 mph /  6.4 km/h 8.0 mph /  12.9 km/h 92 % 0.00 in /  0 mm 12 W/m2
14:55 41.5 °F /  5.3 °C 39.3 °F /  4.1 °C 30.41 in /  1029.7 hPa SSW 4.0 mph /  6.4 km/h 8.0 mph /  12.9 km/h 92 % 0.00 in /  0 mm 12 W/m2
15:00 41.5 °F /  5.3 °C 39.6 °F /  4.2 °C 30.41 in /  1029.7 hPa South 5.0 mph /  8 km/h 8.0 mph /  12.9 km/h 93 % 0.00 in /  0 mm 19 W/m2
15:10 41.7 °F /  5.4 °C 39.8 °F /  4.3 °C 30.41 in /  1029.7 hPa SSW 4.0 mph /  6.4 km/h 8.0 mph /  12.9 km/h 93 % 0.00 in /  0 mm 11 W/m2
15:15 41.7 °F /  5.4 °C 39.8 °F /  4.3 °C 30.41 in /  1029.7 hPa SSW 3.0 mph /  4.8 km/h 8.0 mph /  12.9 km/h 93 % 0.00 in /  0 mm 12 W/m2
15:20 41.8 °F /  5.4 °C 39.9 °F /  4.4 °C 30.41 in /  1029.7 hPa South 4.0 mph /  6.4 km/h 4.0 mph /  6.4 km/h 93 % 0.00 in /  0 mm 16 W/m2
15:25 41.9 °F /  5.5 °C 40.0 °F /  4.4 °C 30.40 in /  1029.3 hPa SW 6.0 mph /  9.7 km/h 7.0 mph /  11.3 km/h 93 % 0.00 in /  0 mm 14 W/m2
15:30 42.0 °F /  5.6 °C 40.1 °F /  4.5 °C 30.40 in /  1029.3 hPa SSW 7.0 mph /  11.3 km/h 8.0 mph /  12.9 km/h 93 % 0.00 in /  0 mm 14 W/m2
15:35 42.1 °F /  5.6 °C 40.2 °F /  4.6 °C 30.41 in /  1029.7 hPa SSW 6.0 mph /  9.7 km/h 8.0 mph /  12.9 km/h 93 % 0.00 in /  0 mm 16 W/m2
15:45 42.3 °F /  5.7 °C 40.4 °F /  4.7 °C 30.41 in /  1029.7 hPa SW 5.0 mph /  8 km/h 8.0 mph /  12.9 km/h 93 % 0.00 in /  0 mm 9 W/m2
15:50 42.4 °F /  5.8 °C 40.5 °F /  4.7 °C 30.41 in /  1029.7 hPa South 6.0 mph /  9.7 km/h 9.0 mph /  14.5 km/h 93 % 0.00 in /  0 mm 7 W/m2
15:55 42.5 °F /  5.8 °C 40.6 °F /  4.8 °C 30.41 in /  1029.7 hPa South 7.0 mph /  11.3 km/h 9.0 mph /  14.5 km/h 93 % 0.00 in /  0 mm 0 W/m2
16:00 42.6 °F /  5.9 °C 40.7 °F /  4.8 °C 30.41 in /  1029.7 hPa South 6.0 mph /  9.7 km/h 8.0 mph /  12.9 km/h 93 % 0.00 in /  0 mm 0 W/m2
16:05 42.6 °F /  5.9 °C 40.4 °F /  4.7 °C 30.40 in /  1029.3 hPa South 6.0 mph /  9.7 km/h 8.0 mph /  12.9 km/h 92 % 0.00 in /  0 mm 0 W/m2
16:10 42.6 °F /  5.9 °C 40.4 °F /  4.7 °C 30.41 in /  1029.7 hPa SSW 5.0 mph /  8 km/h 5.0 mph /  8 km/h 92 % 0.00 in /  0 mm 0 W/m2
16:20 42.7 °F /  5.9 °C 40.5 °F /  4.7 °C 30.41 in /  1029.7 hPa South 5.0 mph /  8 km/h 5.0 mph /  8 km/h 92 % 0.00 in /  0 mm 0 W/m2
16:25 42.7 °F /  5.9 °C 40.5 °F /  4.7 °C 30.41 in /  1029.7 hPa SSW 4.0 mph /  6.4 km/h 8.0 mph /  12.9 km/h 92 % 0.00 in /  0 mm 0 W/m2
16:30 42.8 °F /  6 °C 40.6 °F /  4.8 °C 30.41 in /  1029.7 hPa SSW 4.0 mph /  6.4 km/h 8.0 mph /  12.9 km/h 92 % 0.00 in /  0 mm 0 W/m2
16:35 42.8 °F /  6 °C 40.6 °F /  4.8 °C 30.40 in /  1029.3 hPa South 4.0 mph /  6.4 km/h 8.0 mph /  12.9 km/h 92 % 0.00 in /  0 mm 0 W/m2
16:40 42.8 °F /  6 °C 40.6 °F /  4.8 °C 30.41 in /  1029.7 hPa SSW 5.0 mph /  8 km/h 5.0 mph /  8 km/h 92 % 0.00 in /  0 mm 0 W/m2
16:45 42.9 °F /  6.1 °C 40.7 °F /  4.8 °C 30.41 in /  1029.7 hPa SW 3.0 mph /  4.8 km/h 6.0 mph /  9.7 km/h 92 % 0.00 in /  0 mm 0 W/m2
16:50 42.9 °F /  6.1 °C 40.7 °F /  4.8 °C 30.41 in /  1029.7 hPa South 3.0 mph /  4.8 km/h 3.0 mph /  4.8 km/h 92 % 0.00 in /  0 mm 0 W/m2
16:55 42.9 °F /  6.1 °C 40.7 °F /  4.8 °C 30.40 in /  1029.3 hPa South 2.0 mph /  3.2 km/h 8.0 mph /  12.9 km/h 92 % 0.00 in /  0 mm 0 W/m2
17:05 42.9 °F /  6.1 °C 41.0 °F /  5 °C 30.40 in /  1029.3 hPa SSW 1.0 mph /  1.6 km/h 8.0 mph /  12.9 km/h 93 % 0.00 in /  0 mm 0 W/m2
17:10 43.0 °F /  6.1 °C 41.1 °F /  5.1 °C 30.40 in /  1029.3 hPa SW 3.0 mph /  4.8 km/h 8.0 mph /  12.9 km/h 93 % 0.00 in /  0 mm 0 W/m2
17:15 42.9 °F /  6.1 °C 41.0 °F /  5 °C 30.39 in /  1029 hPa SW 4.0 mph /  6.4 km/h 8.0 mph /  12.9 km/h 93 % 0.00 in /  0 mm 0 W/m2
17:20 42.9 °F /  6.1 °C 41.0 °F /  5 °C 30.39 in /  1029 hPa SW 3.0 mph /  4.8 km/h 3.0 mph /  4.8 km/h 93 % 0.00 in /  0 mm 0 W/m2
17:30 42.8 °F /  6 °C 40.9 °F /  4.9 °C 30.40 in /  1029.3 hPa SW 1.0 mph /  1.6 km/h 1.0 mph /  1.6 km/h 93 % 0.00 in /  0 mm 0 W/m2
17:35 42.8 °F /  6 °C 40.9 °F /  4.9 °C 30.40 in /  1029.3 hPa SW 1.0 mph /  1.6 km/h 8.0 mph /  12.9 km/h 93 % 0.00 in /  0 mm 0 W/m2
17:40 42.8 °F /  6 °C 40.9 °F /  4.9 °C 30.40 in /  1029.3 hPa Calm   8.0 mph /  12.9 km/h 93 % 0.00 in /  0 mm 0 W/m2
17:45 42.8 °F /  6 °C 41.2 °F /  5.1 °C 30.40 in /  1029.3 hPa SW 1.0 mph /  1.6 km/h 8.0 mph /  12.9 km/h 94 % 0.00 in /  0 mm 0 W/m2
17:50 42.9 °F /  6.1 °C 41.3 °F /  5.2 °C 30.40 in /  1029.3 hPa SW 1.0 mph /  1.6 km/h 1.0 mph /  1.6 km/h 94 % 0.00 in /  0 mm 0 W/m2
17:55 42.8 °F /  6 °C 41.2 °F /  5.1 °C 30.40 in /  1029.3 hPa Calm   8.0 mph /  12.9 km/h 94 % 0.00 in /  0 mm 0 W/m2
18:05 42.8 °F /  6 °C 41.2 °F /  5.1 °C 30.40 in /  1029.3 hPa SW 1.0 mph /  1.6 km/h 8.0 mph /  12.9 km/h 94 % 0.00 in /  0 mm 0 W/m2
18:10 42.8 °F /  6 °C 41.2 °F /  5.1 °C 30.40 in /  1029.3 hPa SW 2.0 mph /  3.2 km/h 2.0 mph /  3.2 km/h 94 % 0.00 in /  0 mm 0 W/m2
18:15 42.7 °F /  5.9 °C 41.1 °F /  5.1 °C 30.40 in /  1029.3 hPa SW 2.0 mph /  3.2 km/h 8.0 mph /  12.9 km/h 94 % 0.00 in /  0 mm 0 W/m2
18:20 42.7 °F /  5.9 °C 40.8 °F /  4.9 °C 30.39 in /  1029 hPa SW 2.0 mph /  3.2 km/h 8.0 mph /  12.9 km/h 93 % 0.00 in /  0 mm 0 W/m2
18:25 42.6 °F /  5.9 °C 40.7 °F /  4.8 °C 30.39 in /  1029 hPa SW 2.0 mph /  3.2 km/h 8.0 mph /  12.9 km/h 93 % 0.00 in /  0 mm 0 W/m2
18:35 42.5 °F /  5.8 °C 40.9 °F /  4.9 °C 30.38 in /  1028.7 hPa West 5.0 mph /  8 km/h 8.0 mph /  12.9 km/h 94 % 0.00 in /  0 mm 0 W/m2
18:40 42.3 °F /  5.7 °C 40.7 °F /  4.8 °C 30.38 in /  1028.7 hPa WNW 5.0 mph /  8 km/h 8.0 mph /  12.9 km/h 94 % 0.00 in /  0 mm 0 W/m2
18:45 42.4 °F /  5.8 °C 40.8 °F /  4.9 °C 30.38 in /  1028.7 hPa NNW 4.0 mph /  6.4 km/h 8.0 mph /  12.9 km/h 94 % 0.00 in /  0 mm 0 W/m2
18:50 42.5 °F /  5.8 °C 41.2 °F /  5.1 °C 30.38 in /  1028.7 hPa NNW 3.0 mph /  4.8 km/h 3.0 mph /  4.8 km/h 95 % 0.00 in /  0 mm 0 W/m2
18:55 42.6 °F /  5.9 °C 41.3 °F /  5.2 °C 30.38 in /  1028.7 hPa NNW 1.0 mph /  1.6 km/h 8.0 mph /  12.9 km/h 95 % 0.00 in /  0 mm 0 W/m2
19:00 42.5 °F /  5.8 °C 40.9 °F /  4.9 °C 30.38 in /  1028.7 hPa Calm   8.0 mph /  12.9 km/h 94 % 0.00 in /  0 mm 0 W/m2
19:10 42.2 °F /  5.7 °C 40.6 °F /  4.8 °C 30.38 in /  1028.7 hPa Calm   8.0 mph /  12.9 km/h 94 % 0.00 in /  0 mm 0 W/m2
19:15 42.1 °F /  5.6 °C 40.8 °F /  4.9 °C 30.38 in /  1028.7 hPa Calm   8.0 mph /  12.9 km/h 95 % 0.00 in /  0 mm 0 W/m2
19:20 42.1 °F /  5.6 °C 40.8 °F /  4.9 °C 30.38 in /  1028.7 hPa Calm   8.0 mph /  12.9 km/h 95 % 0.00 in /  0 mm 0 W/m2
19:25 42.0 °F /  5.6 °C 40.7 °F /  4.8 °C 30.38 in /  1028.7 hPa Calm   8.0 mph /  12.9 km/h 95 % 0.00 in /  0 mm 0 W/m2
19:30 41.8 °F /  5.4 °C 40.2 °F /  4.6 °C 30.39 in /  1029 hPa Calm   8.0 mph /  12.9 km/h 94 % 0.00 in /  0 mm 0 W/m2
19:40 41.5 °F /  5.3 °C 40.2 °F /  4.6 °C 30.39 in /  1029 hPa NNW 1.0 mph /  1.6 km/h 1.0 mph /  1.6 km/h 95 % 0.00 in /  0 mm 0 W/m2
19:45 41.4 °F /  5.2 °C 40.1 °F /  4.5 °C 30.39 in /  1029 hPa Calm   8.0 mph /  12.9 km/h 95 % 0.00 in /  0 mm 0 W/m2
19:50 41.3 °F /  5.2 °C 40.0 °F /  4.4 °C 30.39 in /  1029 hPa Calm   8.0 mph /  12.9 km/h 95 % 0.00 in /  0 mm 0 W/m2
19:55 41.2 °F /  5.1 °C 39.9 °F /  4.4 °C 30.38 in /  1028.7 hPa Calm   8.0 mph /  12.9 km/h 95 % 0.00 in /  0 mm 0 W/m2
20:00 41.1 °F /  5.1 °C 39.8 °F /  4.3 °C 30.38 in /  1028.7 hPa NNW 1.0 mph /  1.6 km/h 1.0 mph /  1.6 km/h 95 % 0.00 in /  0 mm 0 W/m2
20:10 41.1 °F /  5.1 °C 39.8 °F /  4.3 °C 30.39 in /  1029 hPa Calm   8.0 mph /  12.9 km/h 95 % 0.00 in /  0 mm 0 W/m2
20:15 41.3 °F /  5.2 °C 40.2 °F /  4.6 °C 30.39 in /  1029 hPa Calm   8.0 mph /  12.9 km/h 96 % 0.00 in /  0 mm 0 W/m2
20:20 41.3 °F /  5.2 °C 40.2 °F /  4.6 °C 30.40 in /  1029.3 hPa ESE 1.0 mph /  1.6 km/h 8.0 mph /  12.9 km/h 96 % 0.00 in /  0 mm 0 W/m2
20:30 41.4 °F /  5.2 °C 40.3 °F /  4.6 °C 30.39 in /  1029 hPa East 1.0 mph /  1.6 km/h 1.0 mph /  1.6 km/h 96 % 0.00 in /  0 mm 0 W/m2
20:35 41.5 °F /  5.3 °C 40.4 °F /  4.7 °C 30.39 in /  1029 hPa Calm   8.0 mph /  12.9 km/h 96 % 0.00 in /  0 mm 0 W/m2
20:40 41.7 °F /  5.4 °C 40.6 °F /  4.8 °C 30.39 in /  1029 hPa Calm   8.0 mph /  12.9 km/h 96 % 0.00 in /  0 mm 0 W/m2
20:50 42.2 °F /  5.7 °C 41.1 °F /  5.1 °C 30.39 in /  1029 hPa East 1.0 mph /  1.6 km/h 8.0 mph /  12.9 km/h 96 % 0.00 in /  0 mm 0 W/m2
20:55 42.3 °F /  5.7 °C 41.2 °F /  5.1 °C 30.39 in /  1029 hPa East 1.0 mph /  1.6 km/h 8.0 mph /  12.9 km/h 96 % 0.00 in /  0 mm 0 W/m2
21:00 42.4 °F /  5.8 °C 41.3 °F /  5.2 °C 30.39 in /  1029 hPa Calm   8.0 mph /  12.9 km/h 96 % 0.00 in /  0 mm 0 W/m2
21:05 42.5 °F /  5.8 °C 41.4 °F /  5.2 °C 30.39 in /  1029 hPa Calm   8.0 mph /  12.9 km/h 96 % 0.00 in /  0 mm 0 W/m2
21:10 42.7 °F /  5.9 °C 41.6 °F /  5.3 °C 30.39 in /  1029 hPa Calm   8.0 mph /  12.9 km/h 96 % 0.00 in /  0 mm 0 W/m2
21:20 43.0 °F /  6.1 °C 41.9 °F /  5.5 °C 30.40 in /  1029.3 hPa Calm   8.0 mph /  12.9 km/h 96 % 0.00 in /  0 mm 0 W/m2
21:25 42.9 °F /  6.1 °C 41.8 °F /  5.4 °C 30.40 in /  1029.3 hPa Calm   8.0 mph /  12.9 km/h 96 % 0.00 in /  0 mm 0 W/m2
21:30 42.6 °F /  5.9 °C 41.5 °F /  5.3 °C 30.40 in /  1029.3 hPa Calm   8.0 mph /  12.9 km/h 96 % 0.00 in /  0 mm 0 W/m2
21:35 42.4 °F /  5.8 °C 41.3 °F /  5.2 °C 30.40 in /  1029.3 hPa Calm   8.0 mph /  12.9 km/h 96 % 0.00 in /  0 mm 0 W/m2
21:40 42.2 °F /  5.7 °C 40.9 °F /  4.9 °C 30.40 in /  1029.3 hPa Calm   8.0 mph /  12.9 km/h 95 % 0.00 in /  0 mm 0 W/m2
21:45 42.1 °F /  5.6 °C 41.0 °F /  5 °C 30.40 in /  1029.3 hPa Calm   8.0 mph /  12.9 km/h 96 % 0.00 in /  0 mm 0 W/m2
21:50 42.2 °F /  5.7 °C 41.1 °F /  5.1 °C 30.40 in /  1029.3 hPa Calm   8.0 mph /  12.9 km/h 96 % 0.00 in /  0 mm 0 W/m2
22:00 42.2 °F /  5.7 °C 41.1 °F /  5.1 °C 30.40 in /  1029.3 hPa East 1.0 mph /  1.6 km/h 1.0 mph /  1.6 km/h 96 % 0.00 in /  0 mm 0 W/m2
22:05 42.0 °F /  5.6 °C 40.9 °F /  4.9 °C 30.40 in /  1029.3 hPa Calm   8.0 mph /  12.9 km/h 96 % 0.00 in /  0 mm 0 W/m2
22:10 42.1 °F /  5.6 °C 41.0 °F /  5 °C 30.41 in /  1029.7 hPa Calm   8.0 mph /  12.9 km/h 96 % 0.00 in /  0 mm 0 W/m2
22:15 42.1 °F /  5.6 °C 41.0 °F /  5 °C 30.41 in /  1029.7 hPa Calm   8.0 mph /  12.9 km/h 96 % 0.00 in /  0 mm 0 W/m2
22:20 42.1 °F /  5.6 °C 41.0 °F /  5 °C 30.41 in /  1029.7 hPa Calm   8.0 mph /  12.9 km/h 96 % 0.00 in /  0 mm 0 W/m2
22:25 42.0 °F /  5.6 °C 40.9 °F /  4.9 °C 30.41 in /  1029.7 hPa Calm   8.0 mph /  12.9 km/h 96 % 0.00 in /  0 mm 0 W/m2
22:35 42.1 °F /  5.6 °C 41.0 °F /  5 °C 30.41 in /  1029.7 hPa Calm   8.0 mph /  12.9 km/h 96 % 0.00 in /  0 mm 0 W/m2
22:40 42.2 °F /  5.7 °C 41.1 °F /  5.1 °C 30.41 in /  1029.7 hPa Calm   8.0 mph /  12.9 km/h 96 % 0.00 in /  0 mm 0 W/m2
22:45 42.1 °F /  5.6 °C 41.0 °F /  5 °C 30.41 in /  1029.7 hPa Calm   8.0 mph /  12.9 km/h 96 % 0.00 in /  0 mm 0 W/m2
22:50 42.2 °F /  5.7 °C 41.1 °F /  5.1 °C 30.41 in /  1029.7 hPa Calm   8.0 mph /  12.9 km/h 96 % 0.00 in /  0 mm 0 W/m2
23:00 42.4 °F /  5.8 °C 41.6 °F /  5.3 °C 30.41 in /  1029.7 hPa Calm   8.0 mph /  12.9 km/h 97 % 0.00 in /  0 mm 0 W/m2
23:05 42.5 °F /  5.8 °C 41.7 °F /  5.4 °C 30.41 in /  1029.7 hPa Calm   8.0 mph /  12.9 km/h 97 % 0.00 in /  0 mm 0 W/m2
23:10 42.6 °F /  5.9 °C 41.8 °F /  5.4 °C 30.41 in /  1029.7 hPa Calm   8.0 mph /  12.9 km/h 97 % 0.00 in /  0 mm 0 W/m2
23:15 42.7 °F /  5.9 °C 41.9 °F /  5.5 °C 30.41 in /  1029.7 hPa Calm   8.0 mph /  12.9 km/h 97 % 0.00 in /  0 mm 0 W/m2
23:20 42.8 °F /  6 °C 42.0 °F /  5.6 °C 30.41 in /  1029.7 hPa Calm   8.0 mph /  12.9 km/h 97 % 0.00 in /  0 mm 0 W/m2
23:25 42.9 °F /  6.1 °C 42.1 °F /  5.6 °C 30.41 in /  1029.7 hPa Calm   8.0 mph /  12.9 km/h 97 % 0.00 in /  0 mm 0 W/m2
23:35 43.3 °F /  6.3 °C 42.5 °F /  5.8 °C 30.41 in /  1029.7 hPa Calm   8.0 mph /  12.9 km/h 97 % 0.00 in /  0 mm 0 W/m2
23:45 44.1 °F /  6.7 °C 43.3 °F /  6.3 °C 30.40 in /  1029.3 hPa WNW 3.0 mph /  4.8 km/h 8.0 mph /  12.9 km/h 97 % 0.00 in /  0 mm 0 W/m2
23:50 44.3 °F /  6.8 °C 43.5 °F /  6.4 °C 30.40 in /  1029.3 hPa WNW 1.0 mph /  1.6 km/h 1.0 mph /  1.6 km/h 97 % 0.00 in /  0 mm 0 W/m2
23:55 44.3 °F /  6.8 °C 43.5 °F /  6.4 °C 30.40 in /  1029.3 hPa Calm   8.0 mph /  12.9 km/h 97 % 0.00 in /  0 mm 0 W/m2
Delerius-Weather
Compliments of Weather Underground - 2 mb

Data updates at regular intervals.